Terminal Aerodrome Forecast
Issued by NWS Huntsville, AL

Home | Current Version | Previous Version | Text Only | Print | Product List | Glossary On
Versions: 1 2 3 4 5 6 7 8 9 10 11 12 13 14 15 16 17 18 19 20 21 22 23 24 25
000
FTUS44 KHUN 291727
TAFMSL
TAF
KMSL 291727Z 2918/3018 20012G22KT P6SM VCSH SCT035 SCT070 SCT150
     FM292100 27012G25KT P6SM VCSH SCT015 BKN030
     FM300600 35011KT P6SM SCT015
     FM301500 01010KT P6SM SKC=

USA.gov is the U.S. government's official web portal to all federal, state and local government web resources and services.